LZSL

Sliač Airport

Sliač, Slovakia (Slovak Republic)
TAF LZSL 240500Z 2406/2415 30008KT 9999 -RA SCT030 OVC045 PROB40 TEMPO 2406/2408 33012G25KT 4500 RA BKN014 OVC030 BECMG 2408/2410 32015KT SCT030 TEMPO 2410/2415 34017G30KT SHRA SCT025TCU BKN030
Issued Valid From Valid To
Oct-24 @ 05:00 UTC
(51 minutes ago)
Oct-24 @ 06:00 UTC
(in 9 minutes)
Oct-24 @ 15:00 UTC
(in 9 hours)
Oct-24 @ 06:00 to Oct-24 @ 08:00
TAF LZSL 240500Z 2406/2415 30008KT 9999 -RA SCT030 OVC045
Wind Visibility Clouds Conditions
300° at 8 knots 10,000+ meters
  • Scattered at 3,000' AGL
  • Overcast at 4,500' AGL
  • Light Rain
Temporary  (Probability 40%) Oct-24 @ 06:00 to Oct-24 @ 08:00
PROB40 TEMPO 2406/2408 33012G25KT 4500 RA BKN014 OVC030
Wind Visibility Clouds Conditions
330° at 12 knots
 Gusting to 25 knots
4,506 meters
  • Broken at 1,400' AGL
  • Overcast at 3,000' AGL
  • Rain
Becoming Oct-24 @ 08:00 to Oct-24 @ 15:00
BECMG 2408/2410 32015KT SCT030
Wind Visibility Clouds Conditions
320° at 15 knots 10,000+ meters
  • Scattered at 3,000' AGL
  • Light Rain
Temporary Oct-24 @ 10:00 to Oct-24 @ 15:00
TEMPO 2410/2415 34017G30KT SHRA SCT025TCU BKN030
Wind Clouds Conditions
340° at 17 knots
 Gusting to 30 knots
  • Scattered at 2,500' AGL
  • Broken at 3,000' AGL
  • Rain
TAF LZSL 240500Z 2406/2415 30008KT 9999 -RA SCT030 OVC045 PROB40 TEMPO 2406/2408 33012G25KT 4500 RA BKN014 OVC030 BECMG 2408/2410 32015KT SCT030 TEMPO 2410/2415 34017G30KT SHRA SCT025TCU BKN030
Issued Oct-24 @ 05:00 UTC
(51 minutes ago)
Valid From Oct-24 @ 06:00 UTC
(in 9 minutes)
Valid To Oct-24 @ 15:00 UTC
(in 9 hours)
Oct-24 @ 06:00 - Oct-24 @ 08:00
Wind Visibility
300° at 8 knots 10,000+ meters
Clouds
  • Scattered at 3,000' AGL
  • Overcast at 4,500' AGL
Conditions
  • Light Rain
Probability 40% Temporary Oct-24 @ 06:00 - Oct-24 @ 08:00
Wind Visibility
330° at 12 knots
 Gusting to 25 knots
4,506 meters
Clouds
  • Broken at 1,400' AGL
  • Overcast at 3,000' AGL
Conditions
  • Rain
Becoming Oct-24 @ 08:00 - Oct-24 @ 15:00
Wind Visibility
320° at 15 knots 10,000+ meters
Clouds
  • Scattered at 3,000' AGL
Conditions
  • Light Rain
Temporary Oct-24 @ 10:00 - Oct-24 @ 15:00
Wind
340° at 17 knots
 Gusting to 30 knots
Clouds
  • Scattered at 2,500' AGL
  • Broken at 3,000' AGL
Conditions
  • Rain